sensor_id;sensor_type;location;lat;lon;timestamp;P1;durP1;ratioP1;P2;durP2;ratioP2
46863;SDS011;32598;50.204;6.408;2023-06-22T00:01:45;9.70;;;5.30;;
46863;SDS011;32598;50.204;6.408;2023-06-22T00:04:10;8.37;;;5.00;;
46863;SDS011;32598;50.204;6.408;2023-06-22T00:06:35;8.30;;;5.40;;
46863;SDS011;32598;50.204;6.408;2023-06-22T00:09:01;8.83;;;5.00;;
46863;SDS011;32598;50.204;6.408;2023-06-22T00:11:26;9.20;;;5.07;;
46863;SDS011;32598;50.204;6.408;2023-06-22T00:13:52;8.68;;;5.15;;
46863;SDS011;32598;50.204;6.408;2023-06-22T00:16:18;9.73;;;5.20;;
46863;SDS011;32598;50.204;6.408;2023-06-22T00:18:43;9.02;;;4.97;;
46863;SDS011;32598;50.204;6.408;2023-06-22T00:21:12;10.45;;;5.32;;
46863;SDS011;32598;50.204;6.408;2023-06-22T00:23:37;6.72;;;4.55;;
46863;SDS011;32598;50.204;6.408;2023-06-22T00:26:02;8.17;;;4.30;;
46863;SDS011;32598;50.204;6.408;2023-06-22T00:28:27;7.63;;;4.90;;
46863;SDS011;32598;50.204;6.408;2023-06-22T00:30:53;9.48;;;4.93;;
46863;SDS011;32598;50.204;6.408;2023-06-22T00:33:19;9.95;;;4.63;;
46863;SDS011;32598;50.204;6.408;2023-06-22T00:35:44;8.20;;;5.10;;
46863;SDS011;32598;50.204;6.408;2023-06-22T00:38:09;8.80;;;4.97;;
46863;SDS011;32598;50.204;6.408;2023-06-22T00:40:34;9.68;;;5.60;;
46863;SDS011;32598;50.204;6.408;2023-06-22T00:42:59;8.10;;;5.00;;
46863;SDS011;32598;50.204;6.408;2023-06-22T00:45:25;10.35;;;5.40;;
46863;SDS011;32598;50.204;6.408;2023-06-22T00:47:50;9.20;;;5.40;;
46863;SDS011;32598;50.204;6.408;2023-06-22T00:50:18;8.80;;;5.28;;
46863;SDS011;32598;50.204;6.408;2023-06-22T00:52:43;10.50;;;5.45;;
46863;SDS011;32598;50.204;6.408;2023-06-22T00:55:11;9.75;;;5.43;;
46863;SDS011;32598;50.204;6.408;2023-06-22T00:57:36;9.38;;;5.93;;
46863;SDS011;32598;50.204;6.408;2023-06-22T01:00:02;9.80;;;6.10;;
46863;SDS011;32598;50.204;6.408;2023-06-22T01:02:31;11.98;;;6.18;;
46863;SDS011;32598;50.204;6.408;2023-06-22T01:04:56;11.13;;;6.70;;
46863;SDS011;32598;50.204;6.408;2023-06-22T01:09:54;10.02;;;6.68;;
46863;SDS011;32598;50.204;6.408;2023-06-22T01:12:22;10.30;;;7.00;;
46863;SDS011;32598;50.204;6.408;2023-06-22T01:14:50;11.88;;;7.70;;
46863;SDS011;32598;50.204;6.408;2023-06-22T01:17:17;14.50;;;8.23;;
46863;SDS011;32598;50.204;6.408;2023-06-22T01:22:10;14.50;;;8.80;;
46863;SDS011;32598;50.204;6.408;2023-06-22T01:30:08;14.45;;;8.68;;
46863;SDS011;32598;50.204;6.408;2023-06-22T01:32:36;13.68;;;8.80;;
46863;SDS011;32598;50.204;6.408;2023-06-22T01:35:03;10.82;;;7.93;;
46863;SDS011;32598;50.204;6.408;2023-06-22T01:37:30;10.68;;;8.20;;
46863;SDS011;32598;50.204;6.408;2023-06-22T01:39:57;12.88;;;9.30;;
46863;SDS011;32598;50.204;6.408;2023-06-22T01:42:23;18.70;;;13.27;;
46863;SDS011;32598;50.204;6.408;2023-06-22T01:44:49;23.00;;;13.88;;
46863;SDS011;32598;50.204;6.408;2023-06-22T01:47:15;27.30;;;15.60;;
46863;SDS011;32598;50.204;6.408;2023-06-22T01:49:41;28.13;;;15.45;;
46863;SDS011;32598;50.204;6.408;2023-06-22T01:52:06;21.43;;;15.63;;
46863;SDS011;32598;50.204;6.408;2023-06-22T01:54:32;22.90;;;15.73;;
46863;SDS011;32598;50.204;6.408;2023-06-22T01:56:57;21.60;;;16.33;;
46863;SDS011;32598;50.204;6.408;2023-06-22T02:01:53;21.23;;;17.47;;
46863;SDS011;32598;50.204;6.408;2023-06-22T02:04:20;30.55;;;18.63;;
46863;SDS011;32598;50.204;6.408;2023-06-22T02:06:46;31.02;;;18.45;;
46863;SDS011;32598;50.204;6.408;2023-06-22T02:09:13;28.13;;;19.75;;
46863;SDS011;32598;50.204;6.408;2023-06-22T02:11:40;24.45;;;19.42;;
46863;SDS011;32598;50.204;6.408;2023-06-22T02:14:06;23.25;;;18.25;;
46863;SDS011;32598;50.204;6.408;2023-06-22T02:16:32;22.58;;;18.38;;
46863;SDS011;32598;50.204;6.408;2023-06-22T02:18:57;19.83;;;16.40;;
46863;SDS011;32598;50.204;6.408;2023-06-22T02:21:28;19.15;;;15.95;;
46863;SDS011;32598;50.204;6.408;2023-06-22T02:23:53;19.20;;;14.57;;
46863;SDS011;32598;50.204;6.408;2023-06-22T02:26:19;26.30;;;19.23;;
46863;SDS011;32598;50.204;6.408;2023-06-22T02:28:44;22.48;;;18.52;;
46863;SDS011;32598;50.204;6.408;2023-06-22T02:31:09;23.77;;;17.80;;
46863;SDS011;32598;50.204;6.408;2023-06-22T02:33:34;19.50;;;16.03;;
46863;SDS011;32598;50.204;6.408;2023-06-22T02:36:01;22.33;;;17.23;;
46863;SDS011;32598;50.204;6.408;2023-06-22T02:38:30;22.80;;;17.33;;
46863;SDS011;32598;50.204;6.408;2023-06-22T02:40:59;22.50;;;16.42;;
46863;SDS011;32598;50.204;6.408;2023-06-22T02:43:25;18.75;;;15.35;;
46863;SDS011;32598;50.204;6.408;2023-06-22T02:45:50;20.75;;;15.40;;
46863;SDS011;32598;50.204;6.408;2023-06-22T02:48:15;20.67;;;15.63;;
46863;SDS011;32598;50.204;6.408;2023-06-22T02:50:40;18.10;;;14.83;;
46863;SDS011;32598;50.204;6.408;2023-06-22T02:53:05;19.33;;;14.90;;
46863;SDS011;32598;50.204;6.408;2023-06-22T02:55:31;16.67;;;13.30;;
46863;SDS011;32598;50.204;6.408;2023-06-22T02:57:56;18.48;;;15.35;;
46863;SDS011;32598;50.204;6.408;2023-06-22T03:00:24;18.70;;;14.13;;
46863;SDS011;32598;50.204;6.408;2023-06-22T03:02:55;19.75;;;15.05;;
46863;SDS011;32598;50.204;6.408;2023-06-22T03:05:20;22.08;;;16.27;;
46863;SDS011;32598;50.204;6.408;2023-06-22T03:07:46;19.35;;;15.57;;
46863;SDS011;32598;50.204;6.408;2023-06-22T03:10:11;22.58;;;18.08;;
46863;SDS011;32598;50.204;6.408;2023-06-22T03:12:37;22.83;;;17.75;;
46863;SDS011;32598;50.204;6.408;2023-06-22T03:15:04;22.33;;;19.30;;
46863;SDS011;32598;50.204;6.408;2023-06-22T03:17:29;22.08;;;18.63;;
46863;SDS011;32598;50.204;6.408;2023-06-22T03:19:54;20.13;;;17.90;;
46863;SDS011;32598;50.204;6.408;2023-06-22T03:22:19;19.80;;;16.63;;
46863;SDS011;32598;50.204;6.408;2023-06-22T03:24:44;18.97;;;15.80;;
46863;SDS011;32598;50.204;6.408;2023-06-22T03:27:10;19.23;;;16.00;;
46863;SDS011;32598;50.204;6.408;2023-06-22T03:29:35;19.63;;;14.50;;
46863;SDS011;32598;50.204;6.408;2023-06-22T03:32:00;20.07;;;15.53;;
46863;SDS011;32598;50.204;6.408;2023-06-22T03:34:25;18.88;;;14.80;;
46863;SDS011;32598;50.204;6.408;2023-06-22T03:36:50;16.17;;;14.03;;
46863;SDS011;32598;50.204;6.408;2023-06-22T03:39:16;17.80;;;14.10;;
46863;SDS011;32598;50.204;6.408;2023-06-22T03:41:41;19.57;;;15.37;;
46863;SDS011;32598;50.204;6.408;2023-06-22T03:44:06;20.37;;;17.63;;
46863;SDS011;32598;50.204;6.408;2023-06-22T03:46:31;20.63;;;16.90;;
46863;SDS011;32598;50.204;6.408;2023-06-22T03:48:56;17.70;;;14.87;;
46863;SDS011;32598;50.204;6.408;2023-06-22T03:51:22;19.83;;;15.43;;
46863;SDS011;32598;50.204;6.408;2023-06-22T03:53:47;21.67;;;15.20;;
46863;SDS011;32598;50.204;6.408;2023-06-22T03:56:13;17.00;;;13.70;;
46863;SDS011;32598;50.204;6.408;2023-06-22T03:58:38;15.88;;;12.60;;
46863;SDS011;32598;50.204;6.408;2023-06-22T04:01:08;16.20;;;14.50;;
46863;SDS011;32598;50.204;6.408;2023-06-22T04:03:36;16.83;;;14.23;;
46863;SDS011;32598;50.204;6.408;2023-06-22T04:06:01;19.20;;;16.43;;
46863;SDS011;32598;50.204;6.408;2023-06-22T04:08:26;18.67;;;16.20;;
46863;SDS011;32598;50.204;6.408;2023-06-22T04:10:51;16.40;;;14.00;;
46863;SDS011;32598;50.204;6.408;2023-06-22T04:13:17;18.17;;;15.32;;
46863;SDS011;32598;50.204;6.408;2023-06-22T04:15:42;18.13;;;15.00;;
46863;SDS011;32598;50.204;6.408;2023-06-22T04:18:07;21.80;;;16.20;;
46863;SDS011;32598;50.204;6.408;2023-06-22T04:20:32;18.57;;;14.07;;
46863;SDS011;32598;50.204;6.408;2023-06-22T04:22:57;20.27;;;15.20;;
46863;SDS011;32598;50.204;6.408;2023-06-22T04:25:22;15.85;;;13.98;;
46863;SDS011;32598;50.204;6.408;2023-06-22T04:27:48;15.95;;;14.18;;
46863;SDS011;32598;50.204;6.408;2023-06-22T04:30:13;15.27;;;13.52;;
46863;SDS011;32598;50.204;6.408;2023-06-22T04:32:41;13.20;;;11.55;;
46863;SDS011;32598;50.204;6.408;2023-06-22T04:35:06;12.40;;;10.60;;
46863;SDS011;32598;50.204;6.408;2023-06-22T04:37:32;14.65;;;12.75;;
46863;SDS011;32598;50.204;6.408;2023-06-22T04:39:57;14.90;;;13.25;;
46863;SDS011;32598;50.204;6.408;2023-06-22T04:42:22;14.43;;;12.90;;
46863;SDS011;32598;50.204;6.408;2023-06-22T04:44:47;16.37;;;13.17;;
46863;SDS011;32598;50.204;6.408;2023-06-22T04:47:13;15.00;;;11.67;;
46863;SDS011;32598;50.204;6.408;2023-06-22T04:49:38;12.23;;;10.03;;
46863;SDS011;32598;50.204;6.408;2023-06-22T04:52:05;13.93;;;11.32;;
46863;SDS011;32598;50.204;6.408;2023-06-22T04:54:31;15.38;;;11.18;;
46863;SDS011;32598;50.204;6.408;2023-06-22T04:57:00;13.70;;;11.00;;
46863;SDS011;32598;50.204;6.408;2023-06-22T04:59:27;14.82;;;11.68;;
46863;SDS011;32598;50.204;6.408;2023-06-22T05:01:54;12.35;;;10.50;;
46863;SDS011;32598;50.204;6.408;2023-06-22T05:04:21;13.98;;;10.57;;
46863;SDS011;32598;50.204;6.408;2023-06-22T05:06:47;13.55;;;10.82;;
46863;SDS011;32598;50.204;6.408;2023-06-22T05:09:12;13.70;;;10.70;;
46863;SDS011;32598;50.204;6.408;2023-06-22T05:11:37;14.27;;;11.43;;
46863;SDS011;32598;50.204;6.408;2023-06-22T05:14:03;16.60;;;12.13;;
46863;SDS011;32598;50.204;6.408;2023-06-22T05:16:28;14.43;;;11.63;;
46863;SDS011;32598;50.204;6.408;2023-06-22T05:18:54;14.40;;;10.57;;
46863;SDS011;32598;50.204;6.408;2023-06-22T05:21:23;14.77;;;10.77;;
46863;SDS011;32598;50.204;6.408;2023-06-22T05:23:49;14.93;;;11.15;;
46863;SDS011;32598;50.204;6.408;2023-06-22T05:26:14;14.50;;;10.82;;
46863;SDS011;32598;50.204;6.408;2023-06-22T05:28:39;15.85;;;11.57;;
46863;SDS011;32598;50.204;6.408;2023-06-22T05:31:04;14.20;;;10.97;;
46863;SDS011;32598;50.204;6.408;2023-06-22T05:33:29;13.63;;;11.13;;
46863;SDS011;32598;50.204;6.408;2023-06-22T05:35:55;15.35;;;11.60;;
46863;SDS011;32598;50.204;6.408;2023-06-22T05:38:20;13.00;;;11.40;;
46863;SDS011;32598;50.204;6.408;2023-06-22T05:40:45;13.73;;;10.97;;
46863;SDS011;32598;50.204;6.408;2023-06-22T05:43:10;15.63;;;11.77;;
46863;SDS011;32598;50.204;6.408;2023-06-22T05:45:35;15.43;;;11.70;;
46863;SDS011;32598;50.204;6.408;2023-06-22T05:48:00;14.40;;;11.50;;
46863;SDS011;32598;50.204;6.408;2023-06-22T05:50:26;13.52;;;10.93;;
46863;SDS011;32598;50.204;6.408;2023-06-22T05:52:51;13.07;;;10.60;;
46863;SDS011;32598;50.204;6.408;2023-06-22T05:55:16;14.80;;;11.52;;
46863;SDS011;32598;50.204;6.408;2023-06-22T05:57:43;16.65;;;12.52;;
46863;SDS011;32598;50.204;6.408;2023-06-22T06:00:09;17.55;;;13.07;;
46863;SDS011;32598;50.204;6.408;2023-06-22T06:02:36;15.57;;;12.20;;
46863;SDS011;32598;50.204;6.408;2023-06-22T06:05:01;16.13;;;13.27;;
46863;SDS011;32598;50.204;6.408;2023-06-22T06:07:27;16.67;;;11.88;;
46863;SDS011;32598;50.204;6.408;2023-06-22T06:09:52;17.00;;;13.47;;
46863;SDS011;32598;50.204;6.408;2023-06-22T06:12:18;16.93;;;13.20;;
46863;SDS011;32598;50.204;6.408;2023-06-22T06:14:43;14.87;;;12.57;;
46863;SDS011;32598;50.204;6.408;2023-06-22T06:17:08;15.13;;;13.53;;
46863;SDS011;32598;50.204;6.408;2023-06-22T06:19:33;16.70;;;12.60;;
46863;SDS011;32598;50.204;6.408;2023-06-22T06:21:58;14.32;;;12.82;;
46863;SDS011;32598;50.204;6.408;2023-06-22T06:24:24;17.98;;;13.30;;
46863;SDS011;32598;50.204;6.408;2023-06-22T06:26:49;16.17;;;13.35;;
46863;SDS011;32598;50.204;6.408;2023-06-22T06:29:14;15.00;;;11.97;;
46863;SDS011;32598;50.204;6.408;2023-06-22T06:31:41;18.48;;;13.00;;
46863;SDS011;32598;50.204;6.408;2023-06-22T06:34:06;16.40;;;12.83;;
46863;SDS011;32598;50.204;6.408;2023-06-22T06:36:31;17.63;;;13.00;;
46863;SDS011;32598;50.204;6.408;2023-06-22T06:38:56;14.87;;;12.13;;
46863;SDS011;32598;50.204;6.408;2023-06-22T06:41:22;15.52;;;12.13;;
46863;SDS011;32598;50.204;6.408;2023-06-22T06:43:48;16.10;;;13.10;;
46863;SDS011;32598;50.204;6.408;2023-06-22T06:46:13;16.17;;;12.77;;
46863;SDS011;32598;50.204;6.408;2023-06-22T06:48:38;16.85;;;13.18;;
46863;SDS011;32598;50.204;6.408;2023-06-22T06:51:04;17.48;;;13.27;;
46863;SDS011;32598;50.204;6.408;2023-06-22T06:53:30;15.90;;;12.30;;
46863;SDS011;32598;50.204;6.408;2023-06-22T06:55:55;19.67;;;13.13;;
46863;SDS011;32598;50.204;6.408;2023-06-22T06:58:20;18.00;;;11.67;;
46863;SDS011;32598;50.204;6.408;2023-06-22T07:00:45;16.25;;;12.38;;
46863;SDS011;32598;50.204;6.408;2023-06-22T07:03:10;13.90;;;12.13;;
46863;SDS011;32598;50.204;6.408;2023-06-22T07:05:36;15.00;;;12.27;;
46863;SDS011;32598;50.204;6.408;2023-06-22T07:08:01;14.83;;;11.50;;
46863;SDS011;32598;50.204;6.408;2023-06-22T07:10:26;16.42;;;12.57;;
46863;SDS011;32598;50.204;6.408;2023-06-22T07:12:52;17.30;;;12.70;;
46863;SDS011;32598;50.204;6.408;2023-06-22T07:15:17;14.83;;;11.87;;
46863;SDS011;32598;50.204;6.408;2023-06-22T07:17:42;15.30;;;10.87;;
46863;SDS011;32598;50.204;6.408;2023-06-22T07:20:07;15.80;;;12.37;;
46863;SDS011;32598;50.204;6.408;2023-06-22T07:22:40;17.20;;;11.05;;
46863;SDS011;32598;50.204;6.408;2023-06-22T07:25:06;14.48;;;11.48;;
46863;SDS011;32598;50.204;6.408;2023-06-22T07:27:43;13.95;;;10.93;;
46863;SDS011;32598;50.204;6.408;2023-06-22T07:30:10;16.70;;;11.73;;
46863;SDS011;32598;50.204;6.408;2023-06-22T07:32:35;13.43;;;10.77;;
46863;SDS011;32598;50.204;6.408;2023-06-22T07:35:00;15.98;;;11.55;;
46863;SDS011;32598;50.204;6.408;2023-06-22T07:37:26;15.80;;;11.15;;
46863;SDS011;32598;50.204;6.408;2023-06-22T07:39:52;15.63;;;11.88;;
46863;SDS011;32598;50.204;6.408;2023-06-22T07:42:18;18.45;;;12.32;;
46863;SDS011;32598;50.204;6.408;2023-06-22T07:44:44;15.57;;;12.13;;
46863;SDS011;32598;50.204;6.408;2023-06-22T07:47:09;14.73;;;11.90;;
46863;SDS011;32598;50.204;6.408;2023-06-22T07:49:34;16.40;;;12.63;;
46863;SDS011;32598;50.204;6.408;2023-06-22T07:51:59;17.50;;;13.33;;
46863;SDS011;32598;50.204;6.408;2023-06-22T07:54:26;20.20;;;12.70;;
46863;SDS011;32598;50.204;6.408;2023-06-22T07:56:51;20.23;;;13.80;;
46863;SDS011;32598;50.204;6.408;2023-06-22T07:59:16;16.88;;;13.95;;
46863;SDS011;32598;50.204;6.408;2023-06-22T08:01:42;19.37;;;14.20;;
46863;SDS011;32598;50.204;6.408;2023-06-22T08:04:07;20.00;;;14.25;;
46863;SDS011;32598;50.204;6.408;2023-06-22T08:06:33;18.13;;;13.80;;
46863;SDS011;32598;50.204;6.408;2023-06-22T08:08:58;16.73;;;13.77;;
46863;SDS011;32598;50.204;6.408;2023-06-22T08:11:24;18.65;;;13.50;;
46863;SDS011;32598;50.204;6.408;2023-06-22T08:13:50;16.95;;;14.23;;
46863;SDS011;32598;50.204;6.408;2023-06-22T08:16:15;16.60;;;13.65;;
46863;SDS011;32598;50.204;6.408;2023-06-22T08:18:40;18.97;;;14.87;;
46863;SDS011;32598;50.204;6.408;2023-06-22T08:21:05;19.40;;;14.00;;
46863;SDS011;32598;50.204;6.408;2023-06-22T08:23:31;18.15;;;13.65;;
46863;SDS011;32598;50.204;6.408;2023-06-22T08:25:56;14.88;;;13.15;;
46863;SDS011;32598;50.204;6.408;2023-06-22T08:28:21;17.17;;;14.20;;
46863;SDS011;32598;50.204;6.408;2023-06-22T08:30:46;18.83;;;14.40;;
46863;SDS011;32598;50.204;6.408;2023-06-22T08:33:11;18.27;;;13.20;;
46863;SDS011;32598;50.204;6.408;2023-06-22T08:35:37;16.92;;;13.52;;
46863;SDS011;32598;50.204;6.408;2023-06-22T08:38:03;16.05;;;13.95;;
46863;SDS011;32598;50.204;6.408;2023-06-22T08:40:28;18.42;;;13.65;;
46863;SDS011;32598;50.204;6.408;2023-06-22T08:42:54;18.42;;;13.25;;
46863;SDS011;32598;50.204;6.408;2023-06-22T08:45:19;17.73;;;12.57;;
46863;SDS011;32598;50.204;6.408;2023-06-22T08:47:44;16.23;;;12.53;;
46863;SDS011;32598;50.204;6.408;2023-06-22T08:50:10;19.37;;;11.47;;
46863;SDS011;32598;50.204;6.408;2023-06-22T08:52:36;15.20;;;11.60;;
46863;SDS011;32598;50.204;6.408;2023-06-22T08:55:02;15.45;;;11.48;;
46863;SDS011;32598;50.204;6.408;2023-06-22T08:57:27;14.20;;;11.55;;
46863;SDS011;32598;50.204;6.408;2023-06-22T08:59:53;15.30;;;11.13;;
46863;SDS011;32598;50.204;6.408;2023-06-22T09:02:18;14.55;;;10.98;;
46863;SDS011;32598;50.204;6.408;2023-06-22T09:04:45;13.73;;;10.65;;
46863;SDS011;32598;50.204;6.408;2023-06-22T09:07:10;14.07;;;10.48;;
46863;SDS011;32598;50.204;6.408;2023-06-22T09:09:36;16.92;;;11.43;;
46863;SDS011;32598;50.204;6.408;2023-06-22T09:12:01;16.20;;;10.32;;
46863;SDS011;32598;50.204;6.408;2023-06-22T09:14:27;13.93;;;11.47;;
46863;SDS011;32598;50.204;6.408;2023-06-22T09:16:52;14.48;;;10.95;;
46863;SDS011;32598;50.204;6.408;2023-06-22T09:19:17;15.43;;;11.53;;
46863;SDS011;32598;50.204;6.408;2023-06-22T09:21:42;17.30;;;11.67;;
46863;SDS011;32598;50.204;6.408;2023-06-22T09:24:07;16.57;;;12.97;;
46863;SDS011;32598;50.204;6.408;2023-06-22T09:26:33;19.95;;;14.20;;
46863;SDS011;32598;50.204;6.408;2023-06-22T09:28:58;16.73;;;13.57;;
46863;SDS011;32598;50.204;6.408;2023-06-22T09:31:23;20.00;;;15.93;;
46863;SDS011;32598;50.204;6.408;2023-06-22T09:33:50;23.50;;;16.65;;
46863;SDS011;32598;50.204;6.408;2023-06-22T09:36:15;21.17;;;16.23;;
46863;SDS011;32598;50.204;6.408;2023-06-22T09:38:42;22.05;;;18.65;;
46863;SDS011;32598;50.204;6.408;2023-06-22T09:41:07;26.30;;;19.93;;
46863;SDS011;32598;50.204;6.408;2023-06-22T09:43:32;27.75;;;19.70;;
46863;SDS011;32598;50.204;6.408;2023-06-22T09:46:00;26.25;;;20.70;;
46863;SDS011;32598;50.204;6.408;2023-06-22T09:48:27;28.92;;;21.05;;
46863;SDS011;32598;50.204;6.408;2023-06-22T09:50:52;33.90;;;23.30;;
46863;SDS011;32598;50.204;6.408;2023-06-22T09:53:17;13.48;;;11.07;;
46863;SDS011;32598;50.204;6.408;2023-06-22T09:55:42;14.60;;;11.85;;
46863;SDS011;32598;50.204;6.408;2023-06-22T09:58:07;17.00;;;14.07;;
46863;SDS011;32598;50.204;6.408;2023-06-22T10:00:33;16.95;;;13.45;;
46863;SDS011;32598;50.204;6.408;2023-06-22T10:02:58;17.35;;;12.77;;
46863;SDS011;32598;50.204;6.408;2023-06-22T10:05:24;18.60;;;15.52;;
46863;SDS011;32598;50.204;6.408;2023-06-22T10:07:50;15.70;;;13.52;;
46863;SDS011;32598;50.204;6.408;2023-06-22T10:10:15;15.75;;;12.95;;
46863;SDS011;32598;50.204;6.408;2023-06-22T10:12:41;17.75;;;14.55;;
46863;SDS011;32598;50.204;6.408;2023-06-22T10:15:07;18.15;;;14.32;;
46863;SDS011;32598;50.204;6.408;2023-06-22T10:17:32;18.27;;;13.90;;
46863;SDS011;32598;50.204;6.408;2023-06-22T10:19:57;21.63;;;14.93;;
46863;SDS011;32598;50.204;6.408;2023-06-22T10:22:22;23.23;;;16.83;;
46863;SDS011;32598;50.204;6.408;2023-06-22T10:24:48;21.85;;;15.70;;
46863;SDS011;32598;50.204;6.408;2023-06-22T10:27:13;24.85;;;16.38;;
46863;SDS011;32598;50.204;6.408;2023-06-22T10:29:38;24.83;;;18.08;;
46863;SDS011;32598;50.204;6.408;2023-06-22T10:32:04;23.90;;;17.92;;
46863;SDS011;32598;50.204;6.408;2023-06-22T10:34:29;22.58;;;17.77;;
46863;SDS011;32598;50.204;6.408;2023-06-22T10:36:54;22.97;;;20.23;;
46863;SDS011;32598;50.204;6.408;2023-06-22T10:39:19;21.23;;;16.70;;
46863;SDS011;32598;50.204;6.408;2023-06-22T10:41:44;16.57;;;14.27;;
46863;SDS011;32598;50.204;6.408;2023-06-22T10:44:10;16.58;;;12.13;;
46863;SDS011;32598;50.204;6.408;2023-06-22T10:46:35;14.25;;;8.73;;
46863;SDS011;32598;50.204;6.408;2023-06-22T10:49:00;9.80;;;8.17;;
46863;SDS011;32598;50.204;6.408;2023-06-22T10:51:26;12.97;;;9.17;;
46863;SDS011;32598;50.204;6.408;2023-06-22T10:53:53;11.07;;;8.80;;
46863;SDS011;32598;50.204;6.408;2023-06-22T10:56:18;12.98;;;9.43;;
46863;SDS011;32598;50.204;6.408;2023-06-22T10:58:44;12.68;;;10.23;;
46863;SDS011;32598;50.204;6.408;2023-06-22T11:01:09;15.15;;;10.65;;
46863;SDS011;32598;50.204;6.408;2023-06-22T11:03:34;15.03;;;10.97;;
46863;SDS011;32598;50.204;6.408;2023-06-22T11:05:59;14.25;;;10.80;;
46863;SDS011;32598;50.204;6.408;2023-06-22T11:08:25;14.52;;;10.93;;
46863;SDS011;32598;50.204;6.408;2023-06-22T11:10:51;13.03;;;10.53;;
46863;SDS011;32598;50.204;6.408;2023-06-22T11:13:16;16.15;;;10.80;;
46863;SDS011;32598;50.204;6.408;2023-06-22T11:15:41;12.60;;;9.98;;
46863;SDS011;32598;50.204;6.408;2023-06-22T11:18:06;13.82;;;10.25;;
46863;SDS011;32598;50.204;6.408;2023-06-22T11:20:32;11.70;;;8.85;;
46863;SDS011;32598;50.204;6.408;2023-06-22T11:22:59;13.23;;;8.90;;
46863;SDS011;32598;50.204;6.408;2023-06-22T11:25:24;11.43;;;8.43;;
46863;SDS011;32598;50.204;6.408;2023-06-22T11:27:50;11.97;;;8.57;;
46863;SDS011;32598;50.204;6.408;2023-06-22T11:30:16;11.55;;;8.27;;
46863;SDS011;32598;50.204;6.408;2023-06-22T11:32:41;11.75;;;8.32;;
46863;SDS011;32598;50.204;6.408;2023-06-22T11:35:06;11.57;;;8.23;;
46863;SDS011;32598;50.204;6.408;2023-06-22T11:37:32;10.45;;;8.82;;
46863;SDS011;32598;50.204;6.408;2023-06-22T11:39:57;11.45;;;9.02;;
46863;SDS011;32598;50.204;6.408;2023-06-22T11:42:23;12.18;;;8.80;;
46863;SDS011;32598;50.204;6.408;2023-06-22T11:44:48;12.15;;;8.23;;
46863;SDS011;32598;50.204;6.408;2023-06-22T11:47:13;11.82;;;8.77;;
46863;SDS011;32598;50.204;6.408;2023-06-22T11:49:39;10.07;;;8.10;;
46863;SDS011;32598;50.204;6.408;2023-06-22T11:52:05;12.88;;;9.05;;
46863;SDS011;32598;50.204;6.408;2023-06-22T11:54:30;14.65;;;9.75;;
46863;SDS011;32598;50.204;6.408;2023-06-22T11:56:55;15.87;;;10.50;;
46863;SDS011;32598;50.204;6.408;2023-06-22T11:59:20;12.02;;;9.98;;
46863;SDS011;32598;50.204;6.408;2023-06-22T12:01:47;15.80;;;10.15;;
46863;SDS011;32598;50.204;6.408;2023-06-22T12:04:12;13.00;;;10.30;;
46863;SDS011;32598;50.204;6.408;2023-06-22T12:06:37;14.32;;;10.10;;
46863;SDS011;32598;50.204;6.408;2023-06-22T12:09:03;14.05;;;10.50;;
46863;SDS011;32598;50.204;6.408;2023-06-22T12:11:29;16.98;;;10.35;;
46863;SDS011;32598;50.204;6.408;2023-06-22T12:13:54;15.17;;;11.20;;
46863;SDS011;32598;50.204;6.408;2023-06-22T12:16:19;13.53;;;10.63;;
46863;SDS011;32598;50.204;6.408;2023-06-22T12:18:46;13.70;;;10.30;;
46863;SDS011;32598;50.204;6.408;2023-06-22T12:21:11;18.30;;;9.82;;
46863;SDS011;32598;50.204;6.408;2023-06-22T12:23:36;15.15;;;11.75;;
46863;SDS011;32598;50.204;6.408;2023-06-22T12:26:02;14.93;;;11.97;;
46863;SDS011;32598;50.204;6.408;2023-06-22T12:28:27;13.77;;;10.93;;
46863;SDS011;32598;50.204;6.408;2023-06-22T12:30:52;15.17;;;10.87;;
46863;SDS011;32598;50.204;6.408;2023-06-22T12:33:17;16.07;;;11.13;;
46863;SDS011;32598;50.204;6.408;2023-06-22T12:35:43;13.63;;;10.83;;
46863;SDS011;32598;50.204;6.408;2023-06-22T12:38:10;18.65;;;11.07;;
46863;SDS011;32598;50.204;6.408;2023-06-22T12:40:35;17.67;;;11.03;;
46863;SDS011;32598;50.204;6.408;2023-06-22T12:43:00;13.73;;;10.67;;
46863;SDS011;32598;50.204;6.408;2023-06-22T12:45:27;13.90;;;10.75;;
46863;SDS011;32598;50.204;6.408;2023-06-22T12:47:53;13.77;;;10.60;;
46863;SDS011;32598;50.204;6.408;2023-06-22T12:50:19;14.07;;;10.73;;
46863;SDS011;32598;50.204;6.408;2023-06-22T12:52:44;12.93;;;10.43;;
46863;SDS011;32598;50.204;6.408;2023-06-22T12:55:09;14.20;;;10.90;;
46863;SDS011;32598;50.204;6.408;2023-06-22T12:57:34;17.80;;;10.98;;
46863;SDS011;32598;50.204;6.408;2023-06-22T12:59:59;15.27;;;10.23;;
46863;SDS011;32598;50.204;6.408;2023-06-22T13:02:25;15.02;;;11.25;;
46863;SDS011;32598;50.204;6.408;2023-06-22T13:04:51;13.80;;;10.23;;
46863;SDS011;32598;50.204;6.408;2023-06-22T13:07:16;16.70;;;11.50;;
46863;SDS011;32598;50.204;6.408;2023-06-22T13:09:41;12.47;;;10.40;;
46863;SDS011;32598;50.204;6.408;2023-06-22T13:12:07;15.70;;;11.40;;
46863;SDS011;32598;50.204;6.408;2023-06-22T13:14:32;16.20;;;12.20;;
46863;SDS011;32598;50.204;6.408;2023-06-22T13:16:57;17.00;;;11.55;;
46863;SDS011;32598;50.204;6.408;2023-06-22T13:19:22;12.82;;;11.27;;
46863;SDS011;32598;50.204;6.408;2023-06-22T13:21:47;16.97;;;11.30;;
46863;SDS011;32598;50.204;6.408;2023-06-22T13:24:12;19.07;;;11.87;;
46863;SDS011;32598;50.204;6.408;2023-06-22T13:26:38;14.17;;;11.43;;
46863;SDS011;32598;50.204;6.408;2023-06-22T13:29:03;16.15;;;12.20;;
46863;SDS011;32598;50.204;6.408;2023-06-22T13:31:28;15.80;;;11.35;;
46863;SDS011;32598;50.204;6.408;2023-06-22T13:33:53;15.80;;;11.97;;
46863;SDS011;32598;50.204;6.408;2023-06-22T13:36:18;14.33;;;11.77;;
46863;SDS011;32598;50.204;6.408;2023-06-22T13:38:44;20.77;;;13.55;;
46863;SDS011;32598;50.204;6.408;2023-06-22T13:41:09;19.25;;;14.48;;
46863;SDS011;32598;50.204;6.408;2023-06-22T13:43:35;19.27;;;13.37;;
46863;SDS011;32598;50.204;6.408;2023-06-22T13:46:00;15.77;;;13.50;;
46863;SDS011;32598;50.204;6.408;2023-06-22T13:48:25;16.73;;;13.47;;
46863;SDS011;32598;50.204;6.408;2023-06-22T13:50:51;15.45;;;12.52;;
46863;SDS011;32598;50.204;6.408;2023-06-22T13:53:16;16.65;;;12.35;;
46863;SDS011;32598;50.204;6.408;2023-06-22T13:55:41;17.57;;;12.70;;
46863;SDS011;32598;50.204;6.408;2023-06-22T13:58:06;17.43;;;13.90;;
46863;SDS011;32598;50.204;6.408;2023-06-22T14:00:31;16.63;;;12.40;;
46863;SDS011;32598;50.204;6.408;2023-06-22T14:02:57;15.20;;;13.03;;
46863;SDS011;32598;50.204;6.408;2023-06-22T14:05:22;17.17;;;12.77;;
46863;SDS011;32598;50.204;6.408;2023-06-22T14:07:47;16.55;;;12.57;;
46863;SDS011;32598;50.204;6.408;2023-06-22T14:10:12;18.13;;;13.03;;
46863;SDS011;32598;50.204;6.408;2023-06-22T14:12:37;18.37;;;13.97;;
46863;SDS011;32598;50.204;6.408;2023-06-22T14:15:03;23.52;;;15.75;;
46863;SDS011;32598;50.204;6.408;2023-06-22T14:17:28;18.77;;;15.45;;
46863;SDS011;32598;50.204;6.408;2023-06-22T14:19:53;18.30;;;15.85;;
46863;SDS011;32598;50.204;6.408;2023-06-22T14:22:19;20.57;;;16.97;;
46863;SDS011;32598;50.204;6.408;2023-06-22T14:24:44;20.50;;;15.95;;
46863;SDS011;32598;50.204;6.408;2023-06-22T14:27:09;16.63;;;13.55;;